sensor_id;sensor_type;location;lat;lon;timestamp;temperature;humidity
10294;DHT22;5192;50.328;7.610;2023-07-16T00:01:03;20.70;16.90
10294;DHT22;5192;50.328;7.610;2023-07-16T00:03:30;20.70;17.80
10294;DHT22;5192;50.328;7.610;2023-07-16T00:05:58;20.60;18.00
10294;DHT22;5192;50.328;7.610;2023-07-16T00:08:26;20.60;18.50
10294;DHT22;5192;50.328;7.610;2023-07-16T00:10:53;20.50;19.30
10294;DHT22;5192;50.328;7.610;2023-07-16T00:13:19;20.50;20.30
10294;DHT22;5192;50.328;7.610;2023-07-16T00:15:49;20.40;21.20
10294;DHT22;5192;50.328;7.610;2023-07-16T00:18:16;20.40;21.80
10294;DHT22;5192;50.328;7.610;2023-07-16T00:20:43;20.30;23.00
10294;DHT22;5192;50.328;7.610;2023-07-16T00:23:10;20.30;24.40
10294;DHT22;5192;50.328;7.610;2023-07-16T00:25:38;20.20;24.70
10294;DHT22;5192;50.328;7.610;2023-07-16T00:28:04;20.10;26.60
10294;DHT22;5192;50.328;7.610;2023-07-16T00:30:31;20.10;27.30
10294;DHT22;5192;50.328;7.610;2023-07-16T00:32:57;20.10;26.70
10294;DHT22;5192;50.328;7.610;2023-07-16T00:35:24;20.00;27.50
10294;DHT22;5192;50.328;7.610;2023-07-16T00:37:50;20.00;28.20
10294;DHT22;5192;50.328;7.610;2023-07-16T00:40:18;20.00;28.40
10294;DHT22;5192;50.328;7.610;2023-07-16T00:42:45;19.90;29.40
10294;DHT22;5192;50.328;7.610;2023-07-16T00:45:14;19.90;29.60
10294;DHT22;5192;50.328;7.610;2023-07-16T00:47:42;19.90;30.10
10294;DHT22;5192;50.328;7.610;2023-07-16T00:50:10;19.80;31.60
10294;DHT22;5192;50.328;7.610;2023-07-16T00:52:38;19.80;32.50
10294;DHT22;5192;50.328;7.610;2023-07-16T00:55:06;19.80;32.00
10294;DHT22;5192;50.328;7.610;2023-07-16T00:57:35;19.80;32.30
10294;DHT22;5192;50.328;7.610;2023-07-16T01:00:02;19.70;33.00
10294;DHT22;5192;50.328;7.610;2023-07-16T01:02:31;19.70;33.60
10294;DHT22;5192;50.328;7.610;2023-07-16T01:04:59;19.70;32.90
10294;DHT22;5192;50.328;7.610;2023-07-16T01:07:27;19.70;33.40
10294;DHT22;5192;50.328;7.610;2023-07-16T01:09:55;19.70;32.50
10294;DHT22;5192;50.328;7.610;2023-07-16T01:12:22;19.70;33.60
10294;DHT22;5192;50.328;7.610;2023-07-16T01:14:53;19.70;33.10
10294;DHT22;5192;50.328;7.610;2023-07-16T01:17:19;19.70;31.80
10294;DHT22;5192;50.328;7.610;2023-07-16T01:19:46;19.60;33.10
10294;DHT22;5192;50.328;7.610;2023-07-16T01:22:48;19.60;33.60
10294;DHT22;5192;50.328;7.610;2023-07-16T01:25:53;19.60;34.20
10294;DHT22;5192;50.328;7.610;2023-07-16T01:29:07;19.50;35.60
10294;DHT22;5192;50.328;7.610;2023-07-16T01:31:55;19.40;35.80
10294;DHT22;5192;50.328;7.610;2023-07-16T01:34:23;19.40;36.80
10294;DHT22;5192;50.328;7.610;2023-07-16T01:36:53;19.30;38.20
10294;DHT22;5192;50.328;7.610;2023-07-16T01:39:21;19.30;38.30
10294;DHT22;5192;50.328;7.610;2023-07-16T01:41:48;19.20;39.10
10294;DHT22;5192;50.328;7.610;2023-07-16T01:44:15;19.10;40.60
10294;DHT22;5192;50.328;7.610;2023-07-16T01:46:42;19.20;41.10
10294;DHT22;5192;50.328;7.610;2023-07-16T01:49:09;19.20;40.00
10294;DHT22;5192;50.328;7.610;2023-07-16T01:51:37;19.20;40.30
10294;DHT22;5192;50.328;7.610;2023-07-16T01:54:06;19.10;42.10
10294;DHT22;5192;50.328;7.610;2023-07-16T01:56:33;19.10;42.00
10294;DHT22;5192;50.328;7.610;2023-07-16T01:59:00;19.10;43.20
10294;DHT22;5192;50.328;7.610;2023-07-16T02:01:29;19.10;42.80
10294;DHT22;5192;50.328;7.610;2023-07-16T02:04:04;19.00;43.10
10294;DHT22;5192;50.328;7.610;2023-07-16T02:06:33;19.00;44.40
10294;DHT22;5192;50.328;7.610;2023-07-16T02:09:00;18.90;45.50
10294;DHT22;5192;50.328;7.610;2023-07-16T02:11:26;18.90;46.90
10294;DHT22;5192;50.328;7.610;2023-07-16T02:13:54;18.80;47.80
10294;DHT22;5192;50.328;7.610;2023-07-16T02:16:21;18.80;49.70
10294;DHT22;5192;50.328;7.610;2023-07-16T02:18:49;18.80;49.00
10294;DHT22;5192;50.328;7.610;2023-07-16T02:21:17;18.80;49.10
10294;DHT22;5192;50.328;7.610;2023-07-16T02:23:44;18.80;48.90
10294;DHT22;5192;50.328;7.610;2023-07-16T02:26:11;18.70;49.90
10294;DHT22;5192;50.328;7.610;2023-07-16T02:28:39;18.70;50.50
10294;DHT22;5192;50.328;7.610;2023-07-16T02:31:05;18.60;51.40
10294;DHT22;5192;50.328;7.610;2023-07-16T02:33:32;18.60;52.40
10294;DHT22;5192;50.328;7.610;2023-07-16T02:36:01;18.60;52.10
10294;DHT22;5192;50.328;7.610;2023-07-16T02:38:27;18.60;52.00
10294;DHT22;5192;50.328;7.610;2023-07-16T02:40:53;18.50;51.50
10294;DHT22;5192;50.328;7.610;2023-07-16T02:43:20;18.50;51.60
10294;DHT22;5192;50.328;7.610;2023-07-16T02:45:48;18.40;52.40
10294;DHT22;5192;50.328;7.610;2023-07-16T02:48:16;18.50;53.60
10294;DHT22;5192;50.328;7.610;2023-07-16T02:50:43;18.50;52.20
10294;DHT22;5192;50.328;7.610;2023-07-16T02:53:10;18.50;51.40
10294;DHT22;5192;50.328;7.610;2023-07-16T02:55:37;18.50;52.60
10294;DHT22;5192;50.328;7.610;2023-07-16T02:58:03;18.50;49.90
10294;DHT22;5192;50.328;7.610;2023-07-16T03:00:34;18.50;50.10
10294;DHT22;5192;50.328;7.610;2023-07-16T03:03:00;18.40;47.10
10294;DHT22;5192;50.328;7.610;2023-07-16T03:05:28;18.40;46.60
10294;DHT22;5192;50.328;7.610;2023-07-16T03:07:54;18.40;46.40
10294;DHT22;5192;50.328;7.610;2023-07-16T03:10:24;18.40;46.00
10294;DHT22;5192;50.328;7.610;2023-07-16T03:12:54;18.40;45.20
10294;DHT22;5192;50.328;7.610;2023-07-16T03:15:24;18.40;45.50
10294;DHT22;5192;50.328;7.610;2023-07-16T03:17:51;18.30;45.40
10294;DHT22;5192;50.328;7.610;2023-07-16T03:20:18;18.40;43.80
10294;DHT22;5192;50.328;7.610;2023-07-16T03:22:45;18.30;45.30
10294;DHT22;5192;50.328;7.610;2023-07-16T03:25:12;18.20;44.80
10294;DHT22;5192;50.328;7.610;2023-07-16T03:27:39;18.20;44.20
10294;DHT22;5192;50.328;7.610;2023-07-16T03:30:07;18.20;44.10
10294;DHT22;5192;50.328;7.610;2023-07-16T03:32:34;18.20;44.00
10294;DHT22;5192;50.328;7.610;2023-07-16T03:35:00;18.20;43.00
10294;DHT22;5192;50.328;7.610;2023-07-16T03:37:28;18.20;41.60
10294;DHT22;5192;50.328;7.610;2023-07-16T03:39:54;18.20;40.90
10294;DHT22;5192;50.328;7.610;2023-07-16T03:42:22;18.10;42.90
10294;DHT22;5192;50.328;7.610;2023-07-16T03:44:49;18.10;41.60
10294;DHT22;5192;50.328;7.610;2023-07-16T03:47:16;18.00;42.80
10294;DHT22;5192;50.328;7.610;2023-07-16T03:49:43;18.00;42.20
10294;DHT22;5192;50.328;7.610;2023-07-16T03:52:10;18.00;43.70
10294;DHT22;5192;50.328;7.610;2023-07-16T03:54:37;17.90;43.70
10294;DHT22;5192;50.328;7.610;2023-07-16T03:57:02;17.90;44.90
10294;DHT22;5192;50.328;7.610;2023-07-16T03:59:30;17.80;46.10
10294;DHT22;5192;50.328;7.610;2023-07-16T04:01:57;17.80;45.80
10294;DHT22;5192;50.328;7.610;2023-07-16T04:04:24;17.80;44.40
10294;DHT22;5192;50.328;7.610;2023-07-16T04:06:49;17.80;45.20
10294;DHT22;5192;50.328;7.610;2023-07-16T04:09:16;17.70;48.50
10294;DHT22;5192;50.328;7.610;2023-07-16T04:11:43;17.70;49.80
10294;DHT22;5192;50.328;7.610;2023-07-16T04:14:10;17.70;53.10
10294;DHT22;5192;50.328;7.610;2023-07-16T04:16:37;17.60;49.80
10294;DHT22;5192;50.328;7.610;2023-07-16T04:19:05;17.60;50.50
10294;DHT22;5192;50.328;7.610;2023-07-16T04:21:32;17.70;50.90
10294;DHT22;5192;50.328;7.610;2023-07-16T04:24:01;17.80;47.90
10294;DHT22;5192;50.328;7.610;2023-07-16T04:26:28;17.80;46.40
10294;DHT22;5192;50.328;7.610;2023-07-16T04:28:56;17.90;46.00
10294;DHT22;5192;50.328;7.610;2023-07-16T04:31:23;17.90;47.30
10294;DHT22;5192;50.328;7.610;2023-07-16T04:33:48;17.90;46.70
10294;DHT22;5192;50.328;7.610;2023-07-16T04:36:16;17.90;45.20
10294;DHT22;5192;50.328;7.610;2023-07-16T04:38:41;18.00;46.40
10294;DHT22;5192;50.328;7.610;2023-07-16T04:41:09;18.00;44.20
10294;DHT22;5192;50.328;7.610;2023-07-16T04:43:36;18.00;40.60
10294;DHT22;5192;50.328;7.610;2023-07-16T04:46:02;17.90;41.00
10294;DHT22;5192;50.328;7.610;2023-07-16T04:48:30;18.00;40.50
10294;DHT22;5192;50.328;7.610;2023-07-16T04:50:58;18.00;38.70
10294;DHT22;5192;50.328;7.610;2023-07-16T04:53:26;18.00;40.30
10294;DHT22;5192;50.328;7.610;2023-07-16T04:55:55;18.00;39.50
10294;DHT22;5192;50.328;7.610;2023-07-16T04:58:24;18.00;38.00
10294;DHT22;5192;50.328;7.610;2023-07-16T05:00:49;17.90;37.80
10294;DHT22;5192;50.328;7.610;2023-07-16T05:03:16;17.90;37.30
10294;DHT22;5192;50.328;7.610;2023-07-16T05:05:43;17.90;37.60
10294;DHT22;5192;50.328;7.610;2023-07-16T05:08:12;17.90;34.40
10294;DHT22;5192;50.328;7.610;2023-07-16T05:10:37;18.00;34.80
10294;DHT22;5192;50.328;7.610;2023-07-16T05:13:05;17.90;34.10
10294;DHT22;5192;50.328;7.610;2023-07-16T05:15:35;17.90;31.30
10294;DHT22;5192;50.328;7.610;2023-07-16T05:18:05;18.00;30.20
10294;DHT22;5192;50.328;7.610;2023-07-16T05:20:33;18.00;30.60
10294;DHT22;5192;50.328;7.610;2023-07-16T05:22:59;18.00;30.00
10294;DHT22;5192;50.328;7.610;2023-07-16T05:25:26;18.10;28.80
10294;DHT22;5192;50.328;7.610;2023-07-16T05:27:55;18.00;29.40
10294;DHT22;5192;50.328;7.610;2023-07-16T05:30:22;18.10;26.80
10294;DHT22;5192;50.328;7.610;2023-07-16T05:32:49;18.10;26.10
10294;DHT22;5192;50.328;7.610;2023-07-16T05:35:17;18.10;27.80
10294;DHT22;5192;50.328;7.610;2023-07-16T05:37:44;18.10;24.70
10294;DHT22;5192;50.328;7.610;2023-07-16T05:40:12;18.20;22.70
10294;DHT22;5192;50.328;7.610;2023-07-16T05:42:40;18.20;23.20
10294;DHT22;5192;50.328;7.610;2023-07-16T05:45:07;18.30;22.30
10294;DHT22;5192;50.328;7.610;2023-07-16T05:47:35;18.40;21.00
10294;DHT22;5192;50.328;7.610;2023-07-16T05:50:02;18.50;19.20
10294;DHT22;5192;50.328;7.610;2023-07-16T05:52:29;18.40;17.00
10294;DHT22;5192;50.328;7.610;2023-07-16T05:54:58;18.50;17.20
10294;DHT22;5192;50.328;7.610;2023-07-16T05:57:25;18.50;15.00
10294;DHT22;5192;50.328;7.610;2023-07-16T05:59:52;18.50;13.90
10294;DHT22;5192;50.328;7.610;2023-07-16T06:02:19;18.50;13.60
10294;DHT22;5192;50.328;7.610;2023-07-16T06:04:47;18.50;13.00
10294;DHT22;5192;50.328;7.610;2023-07-16T06:07:16;18.60;12.80
10294;DHT22;5192;50.328;7.610;2023-07-16T06:09:44;18.60;10.60
10294;DHT22;5192;50.328;7.610;2023-07-16T06:12:11;18.60;11.20
10294;DHT22;5192;50.328;7.610;2023-07-16T06:14:38;18.60;12.10
10294;DHT22;5192;50.328;7.610;2023-07-16T06:17:06;18.60;9.70
10294;DHT22;5192;50.328;7.610;2023-07-16T06:19:32;18.60;9.60
10294;DHT22;5192;50.328;7.610;2023-07-16T06:21:59;18.70;8.40
10294;DHT22;5192;50.328;7.610;2023-07-16T06:24:29;18.70;6.80
10294;DHT22;5192;50.328;7.610;2023-07-16T06:26:54;18.70;6.70
10294;DHT22;5192;50.328;7.610;2023-07-16T06:29:21;18.70;7.00
10294;DHT22;5192;50.328;7.610;2023-07-16T06:31:58;18.70;5.30
10294;DHT22;5192;50.328;7.610;2023-07-16T06:34:26;18.60;4.90
10294;DHT22;5192;50.328;7.610;2023-07-16T06:36:53;18.70;6.10
10294;DHT22;5192;50.328;7.610;2023-07-16T06:39:22;18.70;5.60
10294;DHT22;5192;50.328;7.610;2023-07-16T06:41:49;18.70;4.50
10294;DHT22;5192;50.328;7.610;2023-07-16T06:44:17;18.70;4.80
10294;DHT22;5192;50.328;7.610;2023-07-16T06:46:44;18.80;5.80
10294;DHT22;5192;50.328;7.610;2023-07-16T06:49:11;18.80;3.40
10294;DHT22;5192;50.328;7.610;2023-07-16T06:51:38;18.80;4.10
10294;DHT22;5192;50.328;7.610;2023-07-16T06:54:06;18.90;1.00
10294;DHT22;5192;50.328;7.610;2023-07-16T06:56:32;18.90;1.00
10294;DHT22;5192;50.328;7.610;2023-07-16T06:59:01;18.90;1.00
10294;DHT22;5192;50.328;7.610;2023-07-16T07:01:29;18.90;1.00
10294;DHT22;5192;50.328;7.610;2023-07-16T07:03:56;19.00;1.00
10294;DHT22;5192;50.328;7.610;2023-07-16T07:06:22;19.00;1.00
10294;DHT22;5192;50.328;7.610;2023-07-16T07:08:47;19.10;1.00
10294;DHT22;5192;50.328;7.610;2023-07-16T07:11:14;19.20;1.00
10294;DHT22;5192;50.328;7.610;2023-07-16T07:13:42;19.20;1.00
10294;DHT22;5192;50.328;7.610;2023-07-16T07:16:10;19.20;1.00
10294;DHT22;5192;50.328;7.610;2023-07-16T07:18:38;19.20;1.00
10294;DHT22;5192;50.328;7.610;2023-07-16T07:21:06;19.20;1.00
10294;DHT22;5192;50.328;7.610;2023-07-16T07:23:33;19.20;1.00
10294;DHT22;5192;50.328;7.610;2023-07-16T07:25:59;19.20;1.00
10294;DHT22;5192;50.328;7.610;2023-07-16T07:28:27;19.30;1.00
10294;DHT22;5192;50.328;7.610;2023-07-16T07:30:54;19.40;1.00
10294;DHT22;5192;50.328;7.610;2023-07-16T07:33:20;19.50;1.00
10294;DHT22;5192;50.328;7.610;2023-07-16T07:35:45;19.70;1.00
10294;DHT22;5192;50.328;7.610;2023-07-16T07:38:14;19.60;1.00
10294;DHT22;5192;50.328;7.610;2023-07-16T07:40:44;19.70;1.00
10294;DHT22;5192;50.328;7.610;2023-07-16T07:43:10;19.70;1.00
10294;DHT22;5192;50.328;7.610;2023-07-16T07:45:38;19.70;1.00
10294;DHT22;5192;50.328;7.610;2023-07-16T07:48:06;19.60;1.00
10294;DHT22;5192;50.328;7.610;2023-07-16T07:50:35;19.70;1.00
10294;DHT22;5192;50.328;7.610;2023-07-16T07:53:04;19.70;1.00
10294;DHT22;5192;50.328;7.610;2023-07-16T07:55:31;19.70;1.00
10294;DHT22;5192;50.328;7.610;2023-07-16T07:58:00;19.60;1.00
10294;DHT22;5192;50.328;7.610;2023-07-16T08:00:28;19.70;1.00
10294;DHT22;5192;50.328;7.610;2023-07-16T08:02:55;19.70;1.00
10294;DHT22;5192;50.328;7.610;2023-07-16T08:05:20;19.70;1.00
10294;DHT22;5192;50.328;7.610;2023-07-16T08:07:48;19.70;1.00
10294;DHT22;5192;50.328;7.610;2023-07-16T08:10:15;19.80;1.00
10294;DHT22;5192;50.328;7.610;2023-07-16T08:12:40;19.90;1.00
10294;DHT22;5192;50.328;7.610;2023-07-16T08:15:07;19.90;1.00
10294;DHT22;5192;50.328;7.610;2023-07-16T08:17:37;19.90;1.00
10294;DHT22;5192;50.328;7.610;2023-07-16T08:20:06;20.00;1.00
10294;DHT22;5192;50.328;7.610;2023-07-16T08:22:35;20.00;1.00
10294;DHT22;5192;50.328;7.610;2023-07-16T08:25:02;20.00;1.00
10294;DHT22;5192;50.328;7.610;2023-07-16T08:27:30;20.10;1.00
10294;DHT22;5192;50.328;7.610;2023-07-16T08:29:57;20.20;1.00
10294;DHT22;5192;50.328;7.610;2023-07-16T08:32:24;20.40;1.00
10294;DHT22;5192;50.328;7.610;2023-07-16T08:34:51;20.40;1.00
10294;DHT22;5192;50.328;7.610;2023-07-16T08:37:18;20.40;1.00
10294;DHT22;5192;50.328;7.610;2023-07-16T08:39:45;20.60;1.00
10294;DHT22;5192;50.328;7.610;2023-07-16T08:42:12;20.70;1.00
10294;DHT22;5192;50.328;7.610;2023-07-16T08:44:41;20.70;1.00
10294;DHT22;5192;50.328;7.610;2023-07-16T08:47:08;20.60;1.00
10294;DHT22;5192;50.328;7.610;2023-07-16T08:49:34;20.70;1.00
10294;DHT22;5192;50.328;7.610;2023-07-16T08:52:02;20.80;1.00
10294;DHT22;5192;50.328;7.610;2023-07-16T08:54:28;20.80;1.00
10294;DHT22;5192;50.328;7.610;2023-07-16T08:56:56;20.90;1.00
10294;DHT22;5192;50.328;7.610;2023-07-16T08:59:23;21.00;1.00
10294;DHT22;5192;50.328;7.610;2023-07-16T09:01:53;20.90;1.00
10294;DHT22;5192;50.328;7.610;2023-07-16T09:04:21;21.00;1.00
10294;DHT22;5192;50.328;7.610;2023-07-16T09:06:48;21.00;1.00
10294;DHT22;5192;50.328;7.610;2023-07-16T09:09:24;21.10;1.00
10294;DHT22;5192;50.328;7.610;2023-07-16T09:11:50;21.40;1.00
10294;DHT22;5192;50.328;7.610;2023-07-16T09:14:18;21.40;1.00
10294;DHT22;5192;50.328;7.610;2023-07-16T09:16:51;21.40;1.00
10294;DHT22;5192;50.328;7.610;2023-07-16T09:19:21;21.40;1.00
10294;DHT22;5192;50.328;7.610;2023-07-16T09:21:49;21.50;1.00
10294;DHT22;5192;50.328;7.610;2023-07-16T09:24:17;21.40;1.00
10294;DHT22;5192;50.328;7.610;2023-07-16T09:27:02;21.40;1.00
10294;DHT22;5192;50.328;7.610;2023-07-16T09:29:29;21.20;1.00
10294;DHT22;5192;50.328;7.610;2023-07-16T09:31:58;21.20;1.00
10294;DHT22;5192;50.328;7.610;2023-07-16T09:34:32;21.30;1.00
10294;DHT22;5192;50.328;7.610;2023-07-16T09:36:59;21.20;1.00
10294;DHT22;5192;50.328;7.610;2023-07-16T09:39:30;21.10;1.00
10294;DHT22;5192;50.328;7.610;2023-07-16T09:41:57;21.00;1.00
10294;DHT22;5192;50.328;7.610;2023-07-16T09:44:26;21.10;1.00
10294;DHT22;5192;50.328;7.610;2023-07-16T09:46:53;21.20;1.00
10294;DHT22;5192;50.328;7.610;2023-07-16T09:49:21;21.20;1.00
10294;DHT22;5192;50.328;7.610;2023-07-16T09:51:48;21.10;1.00
10294;DHT22;5192;50.328;7.610;2023-07-16T09:54:20;21.10;1.00
10294;DHT22;5192;50.328;7.610;2023-07-16T09:56:49;21.10;1.00
10294;DHT22;5192;50.328;7.610;2023-07-16T09:59:19;21.10;1.00
10294;DHT22;5192;50.328;7.610;2023-07-16T10:01:50;21.10;1.00
10294;DHT22;5192;50.328;7.610;2023-07-16T10:04:22;21.40;1.00
10294;DHT22;5192;50.328;7.610;2023-07-16T10:07:06;21.50;1.00
10294;DHT22;5192;50.328;7.610;2023-07-16T10:09:41;21.70;1.00
10294;DHT22;5192;50.328;7.610;2023-07-16T10:12:27;21.80;1.00
10294;DHT22;5192;50.328;7.610;2023-07-16T10:14:56;21.80;1.00
10294;DHT22;5192;50.328;7.610;2023-07-16T10:17:25;21.90;1.00
10294;DHT22;5192;50.328;7.610;2023-07-16T10:22:50;21.90;1.00
10294;DHT22;5192;50.328;7.610;2023-07-16T10:28:07;21.90;1.00
10294;DHT22;5192;50.328;7.610;2023-07-16T10:30:35;21.90;1.00
10294;DHT22;5192;50.328;7.610;2023-07-16T10:33:21;21.80;1.00
10294;DHT22;5192;50.328;7.610;2023-07-16T10:35:47;22.00;1.00
10294;DHT22;5192;50.328;7.610;2023-07-16T10:38:16;22.00;1.00
10294;DHT22;5192;50.328;7.610;2023-07-16T10:40:46;22.00;1.00
10294;DHT22;5192;50.328;7.610;2023-07-16T10:43:17;22.20;1.00
10294;DHT22;5192;50.328;7.610;2023-07-16T10:45:44;22.30;1.00
10294;DHT22;5192;50.328;7.610;2023-07-16T10:48:15;22.40;1.00
10294;DHT22;5192;50.328;7.610;2023-07-16T10:50:41;22.60;1.00
10294;DHT22;5192;50.328;7.610;2023-07-16T10:53:08;22.80;1.00
10294;DHT22;5192;50.328;7.610;2023-07-16T10:55:35;22.90;1.00
10294;DHT22;5192;50.328;7.610;2023-07-16T10:58:05;22.90;1.00
10294;DHT22;5192;50.328;7.610;2023-07-16T11:00:39;23.30;1.00
10294;DHT22;5192;50.328;7.610;2023-07-16T11:03:06;23.30;1.00
10294;DHT22;5192;50.328;7.610;2023-07-16T11:05:34;23.40;1.00
10294;DHT22;5192;50.328;7.610;2023-07-16T11:08:01;23.30;1.00
10294;DHT22;5192;50.328;7.610;2023-07-16T11:10:31;23.50;1.00
10294;DHT22;5192;50.328;7.610;2023-07-16T11:12:57;23.80;1.00
10294;DHT22;5192;50.328;7.610;2023-07-16T11:15:36;23.80;1.00
10294;DHT22;5192;50.328;7.610;2023-07-16T11:18:04;23.80;1.00
10294;DHT22;5192;50.328;7.610;2023-07-16T11:20:32;23.80;1.00
10294;DHT22;5192;50.328;7.610;2023-07-16T11:23:00;23.80;1.00
10294;DHT22;5192;50.328;7.610;2023-07-16T11:25:26;23.60;1.00
10294;DHT22;5192;50.328;7.610;2023-07-16T11:27:56;23.90;1.00
10294;DHT22;5192;50.328;7.610;2023-07-16T11:30:23;24.20;1.00
10294;DHT22;5192;50.328;7.610;2023-07-16T11:32:52;24.40;1.00
10294;DHT22;5192;50.328;7.610;2023-07-16T11:35:20;24.20;1.00
10294;DHT22;5192;50.328;7.610;2023-07-16T11:37:48;24.00;1.00
10294;DHT22;5192;50.328;7.610;2023-07-16T11:40:19;24.30;1.00
10294;DHT22;5192;50.328;7.610;2023-07-16T11:42:46;24.20;1.00
10294;DHT22;5192;50.328;7.610;2023-07-16T11:45:25;24.00;1.00
10294;DHT22;5192;50.328;7.610;2023-07-16T11:47:53;24.20;1.00
10294;DHT22;5192;50.328;7.610;2023-07-16T11:50:20;24.20;1.00
10294;DHT22;5192;50.328;7.610;2023-07-16T11:52:59;24.30;1.00
10294;DHT22;5192;50.328;7.610;2023-07-16T11:55:26;24.40;1.00
10294;DHT22;5192;50.328;7.610;2023-07-16T11:57:51;24.20;1.00
10294;DHT22;5192;50.328;7.610;2023-07-16T12:00:18;24.30;1.00
10294;DHT22;5192;50.328;7.610;2023-07-16T12:02:45;24.60;1.00
10294;DHT22;5192;50.328;7.610;2023-07-16T12:05:21;24.70;1.00
10294;DHT22;5192;50.328;7.610;2023-07-16T12:07:51;24.80;1.00
10294;DHT22;5192;50.328;7.610;2023-07-16T12:10:17;24.50;1.00
10294;DHT22;5192;50.328;7.610;2023-07-16T12:12:46;24.60;1.00
10294;DHT22;5192;50.328;7.610;2023-07-16T12:15:13;24.90;1.00
10294;DHT22;5192;50.328;7.610;2023-07-16T12:18:16;25.10;1.00
10294;DHT22;5192;50.328;7.610;2023-07-16T12:20:42;24.80;1.00
10294;DHT22;5192;50.328;7.610;2023-07-16T12:23:09;25.20;1.00
10294;DHT22;5192;50.328;7.610;2023-07-16T12:25:36;25.40;1.00
10294;DHT22;5192;50.328;7.610;2023-07-16T12:28:04;25.20;1.00
10294;DHT22;5192;50.328;7.610;2023-07-16T12:30:30;25.20;1.00
10294;DHT22;5192;50.328;7.610;2023-07-16T12:32:56;25.60;1.00
10294;DHT22;5192;50.328;7.610;2023-07-16T12:35:24;25.70;1.00
10294;DHT22;5192;50.328;7.610;2023-07-16T12:37:51;25.70;1.00
10294;DHT22;5192;50.328;7.610;2023-07-16T12:40:18;25.60;1.00
10294;DHT22;5192;50.328;7.610;2023-07-16T12:42:46;26.10;1.00
10294;DHT22;5192;50.328;7.610;2023-07-16T12:45:12;26.30;1.00
10294;DHT22;5192;50.328;7.610;2023-07-16T12:47:39;26.50;1.00
10294;DHT22;5192;50.328;7.610;2023-07-16T12:50:06;26.20;1.00
10294;DHT22;5192;50.328;7.610;2023-07-16T12:52:32;25.50;1.00
10294;DHT22;5192;50.328;7.610;2023-07-16T12:55:01;25.70;1.00
10294;DHT22;5192;50.328;7.610;2023-07-16T12:57:27;25.50;1.00
10294;DHT22;5192;50.328;7.610;2023-07-16T12:59:54;25.50;1.00
10294;DHT22;5192;50.328;7.610;2023-07-16T13:02:19;25.30;1.00
10294;DHT22;5192;50.328;7.610;2023-07-16T13:04:46;25.80;1.00
10294;DHT22;5192;50.328;7.610;2023-07-16T13:07:14;25.80;1.00
10294;DHT22;5192;50.328;7.610;2023-07-16T13:09:42;26.10;1.00
10294;DHT22;5192;50.328;7.610;2023-07-16T13:12:08;26.10;1.00
10294;DHT22;5192;50.328;7.610;2023-07-16T13:14:35;26.00;1.00
10294;DHT22;5192;50.328;7.610;2023-07-16T13:17:02;26.20;1.00
10294;DHT22;5192;50.328;7.610;2023-07-16T13:19:32;26.50;1.00
10294;DHT22;5192;50.328;7.610;2023-07-16T13:21:59;26.60;1.00
10294;DHT22;5192;50.328;7.610;2023-07-16T13:24:26;26.70;1.00
10294;DHT22;5192;50.328;7.610;2023-07-16T13:26:54;26.70;1.00
10294;DHT22;5192;50.328;7.610;2023-07-16T13:29:21;26.50;1.00
10294;DHT22;5192;50.328;7.610;2023-07-16T13:31:49;25.90;1.00
10294;DHT22;5192;50.328;7.610;2023-07-16T13:34:15;25.60;1.00
10294;DHT22;5192;50.328;7.610;2023-07-16T13:36:42;25.80;1.00
10294;DHT22;5192;50.328;7.610;2023-07-16T13:39:09;25.60;1.00
10294;DHT22;5192;50.328;7.610;2023-07-16T13:41:36;25.70;1.00
10294;DHT22;5192;50.328;7.610;2023-07-16T13:44:04;25.60;1.00
10294;DHT22;5192;50.328;7.610;2023-07-16T13:46:31;25.10;1.00
10294;DHT22;5192;50.328;7.610;2023-07-16T13:48:58;25.20;1.00
10294;DHT22;5192;50.328;7.610;2023-07-16T13:51:27;25.20;1.00
10294;DHT22;5192;50.328;7.610;2023-07-16T13:53:54;25.30;1.00
10294;DHT22;5192;50.328;7.610;2023-07-16T13:56:21;25.60;1.00
10294;DHT22;5192;50.328;7.610;2023-07-16T13:58:48;26.00;1.00
10294;DHT22;5192;50.328;7.610;2023-07-16T14:01:15;26.20;1.00
10294;DHT22;5192;50.328;7.610;2023-07-16T14:03:44;26.40;1.00
10294;DHT22;5192;50.328;7.610;2023-07-16T14:06:11;26.30;1.00
10294;DHT22;5192;50.328;7.610;2023-07-16T14:08:38;26.40;1.00
10294;DHT22;5192;50.328;7.610;2023-07-16T14:11:03;26.30;1.00
10294;DHT22;5192;50.328;7.610;2023-07-16T14:13:31;25.20;1.00
10294;DHT22;5192;50.328;7.610;2023-07-16T14:15:59;25.20;1.00
10294;DHT22;5192;50.328;7.610;2023-07-16T14:18:24;25.20;1.00
10294;DHT22;5192;50.328;7.610;2023-07-16T14:20:51;25.20;1.00
10294;DHT22;5192;50.328;7.610;2023-07-16T14:23:18;25.20;1.00
10294;DHT22;5192;50.328;7.610;2023-07-16T14:25:44;25.60;1.00
10294;DHT22;5192;50.328;7.610;2023-07-16T14:28:12;26.20;1.00
10294;DHT22;5192;50.328;7.610;2023-07-16T14:30:39;26.40;1.00
10294;DHT22;5192;50.328;7.610;2023-07-16T14:33:07;26.60;1.00
10294;DHT22;5192;50.328;7.610;2023-07-16T14:35:34;27.70;1.00
10294;DHT22;5192;50.328;7.610;2023-07-16T14:38:02;28.40;1.00
10294;DHT22;5192;50.328;7.610;2023-07-16T14:40:28;28.70;1.00
10294;DHT22;5192;50.328;7.610;2023-07-16T14:42:56;29.10;1.00
10294;DHT22;5192;50.328;7.610;2023-07-16T14:45:23;28.40;1.00
10294;DHT22;5192;50.328;7.610;2023-07-16T14:47:50;27.80;1.00
10294;DHT22;5192;50.328;7.610;2023-07-16T14:50:17;27.70;1.00
10294;DHT22;5192;50.328;7.610;2023-07-16T14:52:43;27.80;1.00
10294;DHT22;5192;50.328;7.610;2023-07-16T14:55:11;27.30;1.00
10294;DHT22;5192;50.328;7.610;2023-07-16T14:57:39;27.40;1.00
10294;DHT22;5192;50.328;7.610;2023-07-16T15:00:08;27.50;1.00
10294;DHT22;5192;50.328;7.610;2023-07-16T15:02:43;26.90;1.00
10294;DHT22;5192;50.328;7.610;2023-07-16T15:05:10;27.00;1.00
10294;DHT22;5192;50.328;7.610;2023-07-16T15:07:37;26.70;1.00
10294;DHT22;5192;50.328;7.610;2023-07-16T15:10:06;26.70;1.00
10294;DHT22;5192;50.328;7.610;2023-07-16T15:12:33;26.40;1.00
10294;DHT22;5192;50.328;7.610;2023-07-16T15:15:00;26.30;1.00
10294;DHT22;5192;50.328;7.610;2023-07-16T15:17:28;26.40;1.00
10294;DHT22;5192;50.328;7.610;2023-07-16T15:19:54;26.40;1.00
10294;DHT22;5192;50.328;7.610;2023-07-16T15:22:22;25.70;1.00
10294;DHT22;5192;50.328;7.610;2023-07-16T15:24:50;26.00;1.00
10294;DHT22;5192;50.328;7.610;2023-07-16T15:27:16;25.80;1.00
10294;DHT22;5192;50.328;7.610;2023-07-16T15:29:44;26.10;1.00
10294;DHT22;5192;50.328;7.610;2023-07-16T15:32:12;26.30;1.00
10294;DHT22;5192;50.328;7.610;2023-07-16T15:34:40;26.10;1.00
10294;DHT22;5192;50.328;7.610;2023-07-16T15:37:09;26.00;1.00
10294;DHT22;5192;50.328;7.610;2023-07-16T15:39:37;26.10;1.00
10294;DHT22;5192;50.328;7.610;2023-07-16T15:42:05;25.70;1.00
10294;DHT22;5192;50.328;7.610;2023-07-16T15:44:31;25.60;1.00
10294;DHT22;5192;50.328;7.610;2023-07-16T15:46:58;26.30;1.00
10294;DHT22;5192;50.328;7.610;2023-07-16T15:49:28;27.10;1.00
10294;DHT22;5192;50.328;7.610;2023-07-16T15:51:55;27.80;1.00
10294;DHT22;5192;50.328;7.610;2023-07-16T15:54:22;27.90;1.00
10294;DHT22;5192;50.328;7.610;2023-07-16T15:56:49;27.50;1.00
10294;DHT22;5192;50.328;7.610;2023-07-16T15:59:17;27.60;1.00
10294;DHT22;5192;50.328;7.610;2023-07-16T16:01:45;26.80;1.00
10294;DHT22;5192;50.328;7.610;2023-07-16T16:04:11;26.80;1.00
10294;DHT22;5192;50.328;7.610;2023-07-16T16:06:38;26.30;1.00